createdAt,value
2018-12-06T00:00:30.169Z,11.17
2018-12-06T00:02:57.666Z,11.10
2018-12-06T00:05:25.152Z,10.73
2018-12-06T00:08:04.631Z,11.57
2018-12-06T00:10:32.130Z,10.87
2018-12-06T00:12:59.618Z,10.20
2018-12-06T00:15:28.094Z,11.43
2018-12-06T00:17:55.685Z,10.50
2018-12-06T00:20:23.176Z,10.30
2018-12-06T00:22:50.677Z,10.97
2018-12-06T00:25:18.190Z,10.77
2018-12-06T00:27:45.691Z,11.07
2018-12-06T00:30:25.101Z,11.33
2018-12-06T00:32:52.643Z,10.33
2018-12-06T00:35:20.262Z,10.13
2018-12-06T00:37:47.768Z,10.33
2018-12-06T00:40:16.308Z,12.63
2018-12-06T00:42:43.807Z,11.20
2018-12-06T00:45:11.319Z,11.57
2018-12-06T00:47:38.822Z,11.80
2018-12-06T00:50:06.489Z,11.93
2018-12-06T00:52:34.008Z,11.20
2018-12-06T00:55:01.575Z,11.20
2018-12-06T00:57:29.078Z,11.37
2018-12-06T00:59:56.600Z,11.20
2018-12-06T01:02:24.174Z,10.30
2018-12-06T01:04:52.026Z,11.73
2018-12-06T01:07:19.539Z,11.83
2018-12-06T01:09:47.187Z,11.67
2018-12-06T01:12:15.365Z,10.63
2018-12-06T01:14:42.861Z,11.67
2018-12-06T01:17:10.459Z,11.93
2018-12-06T01:19:37.963Z,11.37
2018-12-06T01:22:05.501Z,10.10
2018-12-06T01:24:33.004Z,11.73
2018-12-06T01:27:00.583Z,11.80
2018-12-06T01:29:28.071Z,11.27
2018-12-06T01:31:55.588Z,11.53
2018-12-06T01:34:23.087Z,11.30
2018-12-06T01:36:50.590Z,12.13
2018-12-06T01:39:18.113Z,11.67
2018-12-06T01:41:45.608Z,11.47
2018-12-06T01:44:13.105Z,12.13
2018-12-06T01:46:40.623Z,11.90
2018-12-06T01:49:08.500Z,11.40
2018-12-06T01:51:36.896Z,12.97
2018-12-06T01:54:04.387Z,11.37
2018-12-06T01:56:31.913Z,12.63
2018-12-06T01:58:59.414Z,12.23
2018-12-06T02:01:26.907Z,12.03
2018-12-06T02:03:54.409Z,12.93
2018-12-06T02:06:21.949Z,13.13
2018-12-06T02:08:49.439Z,13.40
2018-12-06T02:11:16.928Z,13.20
2018-12-06T02:13:44.443Z,12.67
2018-12-06T02:16:11.955Z,13.10
2018-12-06T02:18:39.435Z,14.37
2018-12-06T02:21:06.930Z,13.17
2018-12-06T02:23:34.419Z,13.20
2018-12-06T02:26:01.936Z,14.40
2018-12-06T02:28:29.437Z,13.67
2018-12-06T02:30:56.947Z,14.00
2018-12-06T02:33:24.442Z,13.63
2018-12-06T02:35:51.963Z,15.20
2018-12-06T02:38:19.480Z,14.83
2018-12-06T02:40:46.990Z,13.40
2018-12-06T02:43:14.595Z,15.03
2018-12-06T02:45:42.148Z,15.37
2018-12-06T02:48:09.650Z,14.13
2018-12-06T02:50:37.150Z,15.07
2018-12-06T02:53:04.649Z,13.97
2018-12-06T02:55:32.156Z,14.57
2018-12-06T02:57:59.679Z,14.30
2018-12-06T03:00:27.209Z,14.70
2018-12-06T03:02:54.731Z,14.73
2018-12-06T03:05:22.348Z,14.73
2018-12-06T03:07:49.834Z,16.60
2018-12-06T03:10:17.349Z,17.30
2018-12-06T03:12:44.926Z,16.17
2018-12-06T03:15:12.722Z,17.17
2018-12-06T03:17:40.201Z,16.63
2018-12-06T03:20:08.115Z,16.53
2018-12-06T03:22:35.600Z,17.50
2018-12-06T03:25:03.287Z,20.13
2018-12-06T03:27:30.794Z,18.47
2018-12-06T03:29:58.291Z,18.93
2018-12-06T03:32:25.809Z,19.50
2018-12-06T03:34:53.354Z,19.63
2018-12-06T03:37:20.864Z,18.53
2018-12-06T03:39:48.717Z,19.97
2018-12-06T03:42:16.271Z,20.80
2018-12-06T03:44:43.959Z,19.70
2018-12-06T03:47:11.716Z,21.90
2018-12-06T03:49:39.230Z,21.67
2018-12-06T03:52:06.945Z,21.53
2018-12-06T03:54:34.821Z,23.20
2018-12-06T03:57:02.344Z,23.47
2018-12-06T03:59:29.929Z,22.80
2018-12-06T04:01:57.525Z,23.57
2018-12-06T04:04:25.072Z,24.27
2018-12-06T04:06:52.722Z,26.67
2018-12-06T04:09:20.256Z,26.43
2018-12-06T04:11:47.858Z,25.53
2018-12-06T04:14:15.418Z,28.73
2018-12-06T04:16:42.915Z,25.40
2018-12-06T04:19:10.435Z,29.10
2018-12-06T04:21:37.941Z,28.40
2018-12-06T04:24:05.670Z,29.07
2018-12-06T04:26:33.184Z,28.53
2018-12-06T04:29:00.701Z,28.87
2018-12-06T04:31:28.279Z,30.97
2018-12-06T04:33:55.786Z,29.70
2018-12-06T04:36:23.303Z,31.57
2018-12-06T04:38:50.827Z,28.57
2018-12-06T04:41:18.334Z,33.90
2018-12-06T04:43:45.842Z,32.33
2018-12-06T04:46:13.363Z,32.37
2018-12-06T04:48:40.863Z,33.30
2018-12-06T04:51:08.711Z,34.00
2018-12-06T04:53:36.218Z,31.47
2018-12-06T04:56:03.746Z,33.80
2018-12-06T04:58:31.263Z,33.67
2018-12-06T05:00:58.855Z,34.30
2018-12-06T05:03:26.351Z,34.47
2018-12-06T05:05:53.874Z,35.10
2018-12-06T05:08:21.386Z,35.60
2018-12-06T05:10:48.923Z,36.13
2018-12-06T05:13:16.434Z,33.53
2018-12-06T05:15:43.975Z,36.40
2018-12-06T05:18:11.463Z,36.13
2018-12-06T05:20:38.974Z,36.90
2018-12-06T05:23:06.462Z,36.27
2018-12-06T05:25:33.965Z,35.63
2018-12-06T05:28:01.459Z,37.20
2018-12-06T05:30:28.966Z,37.30
2018-12-06T05:32:56.468Z,37.33
2018-12-06T05:35:23.981Z,38.53
2018-12-06T05:37:51.484Z,38.20
2018-12-06T05:40:18.991Z,39.13
2018-12-06T05:42:46.500Z,36.97
2018-12-06T05:45:13.995Z,37.83
2018-12-06T05:47:41.491Z,39.17
2018-12-06T05:50:08.996Z,39.20
2018-12-06T05:52:36.513Z,42.50
2018-12-06T05:55:04.408Z,41.67
2018-12-06T05:57:31.934Z,43.00
2018-12-06T05:59:59.437Z,40.50
2018-12-06T06:02:26.956Z,39.20
2018-12-06T06:04:54.486Z,40.23
2018-12-06T06:07:21.982Z,40.67
2018-12-06T06:09:49.520Z,40.10
2018-12-06T06:12:17.048Z,41.50
2018-12-06T06:14:44.600Z,40.50
2018-12-06T06:17:12.095Z,43.40
2018-12-06T06:19:39.642Z,40.77
2018-12-06T06:22:07.233Z,40.80
2018-12-06T06:24:34.738Z,41.37
2018-12-06T06:27:02.248Z,41.63
2018-12-06T06:29:29.748Z,40.10
2018-12-06T06:31:57.270Z,39.67
2018-12-06T06:34:24.791Z,41.03
2018-12-06T06:36:52.295Z,41.07
2018-12-06T06:39:19.838Z,41.27
2018-12-06T06:41:47.345Z,39.10
2018-12-06T06:44:14.844Z,42.80
2018-12-06T06:46:42.803Z,39.20
2018-12-06T06:49:13.799Z,40.70
2018-12-06T06:51:39.820Z,38.73
2018-12-06T06:54:07.330Z,37.77
2018-12-06T06:56:34.867Z,37.80
2018-12-06T06:59:02.366Z,39.77
2018-12-06T07:01:29.925Z,39.33
2018-12-06T07:03:57.821Z,40.23
2018-12-06T07:06:25.333Z,39.03
2018-12-06T07:08:52.829Z,39.10
2018-12-06T07:11:20.336Z,42.10
2018-12-06T07:13:47.864Z,41.00
2018-12-06T07:16:15.383Z,41.13
2018-12-06T07:18:42.871Z,43.10
2018-12-06T07:21:10.372Z,41.07
2018-12-06T07:23:38.157Z,39.27
2018-12-06T07:26:05.644Z,41.20
2018-12-06T07:28:33.121Z,39.30
2018-12-06T07:31:01.525Z,37.97
2018-12-06T07:34:11.363Z,38.97
2018-12-06T07:36:38.857Z,34.77
2018-12-06T07:39:07.348Z,35.30
2018-12-06T07:41:34.874Z,32.90
2018-12-06T07:44:02.374Z,33.80
2018-12-06T07:46:29.951Z,33.43
2018-12-06T07:48:57.762Z,31.23
2018-12-06T07:51:26.100Z,31.70
2018-12-06T07:53:53.650Z,29.70
2018-12-06T07:56:21.171Z,26.40
2018-12-06T07:58:48.672Z,29.67
2018-12-06T08:01:16.194Z,29.37
2018-12-06T08:03:43.705Z,30.23
2018-12-06T08:06:11.206Z,27.73
2018-12-06T08:08:38.735Z,28.20
2018-12-06T08:11:06.333Z,26.87
2018-12-06T08:13:33.835Z,30.33
2018-12-06T08:16:01.348Z,29.23
2018-12-06T08:18:28.850Z,29.63
2018-12-06T08:20:56.415Z,29.43
2018-12-06T08:23:23.939Z,27.30
2018-12-06T08:25:51.559Z,27.87
2018-12-06T08:28:19.300Z,25.67
2018-12-06T08:30:47.153Z,25.07
2018-12-06T08:33:15.250Z,25.33
2018-12-06T08:35:42.781Z,25.57
2018-12-06T08:38:10.324Z,25.50
2018-12-06T08:40:37.843Z,24.90
2018-12-06T08:43:05.412Z,24.83
2018-12-06T08:45:32.943Z,25.63
2018-12-06T08:48:00.463Z,24.37
2018-12-06T08:50:28.351Z,24.60
2018-12-06T08:52:56.115Z,24.03
2018-12-06T08:55:23.654Z,23.37
2018-12-06T08:57:51.141Z,21.90
2018-12-06T09:00:18.731Z,23.40
2018-12-06T09:02:46.243Z,24.57
2018-12-06T09:05:13.852Z,22.63
2018-12-06T09:07:41.421Z,22.13
2018-12-06T09:10:09.652Z,21.30
2018-12-06T09:12:37.164Z,21.53
2018-12-06T09:15:06.773Z,21.70
2018-12-06T09:17:34.539Z,21.73
2018-12-06T09:20:02.063Z,21.30
2018-12-06T09:22:29.615Z,20.03
2018-12-06T09:24:59.090Z,20.00
2018-12-06T09:27:26.682Z,21.13
2018-12-06T09:29:54.199Z,20.90
2018-12-06T09:32:22.368Z,21.17
2018-12-06T09:34:49.893Z,20.13
2018-12-06T09:37:17.722Z,22.33
2018-12-06T09:39:53.016Z,20.43
2018-12-06T09:42:20.529Z,21.33
2018-12-06T09:44:48.047Z,22.20
2018-12-06T09:47:15.661Z,23.00
2018-12-06T09:49:43.238Z,24.70
2018-12-06T09:52:10.764Z,23.23
2018-12-06T09:54:38.281Z,23.67
2018-12-06T09:57:05.957Z,23.20
2018-12-06T09:59:33.770Z,24.83
2018-12-06T10:02:01.311Z,25.80
2018-12-06T10:04:28.837Z,26.57
2018-12-06T10:06:56.380Z,28.40
2018-12-06T10:09:24.692Z,29.47
2018-12-06T10:11:52.373Z,31.00
2018-12-06T10:14:19.949Z,30.93
2018-12-06T10:16:47.466Z,30.53
2018-12-06T10:19:15.285Z,35.30
2018-12-06T10:21:43.448Z,33.63
2018-12-06T10:24:10.985Z,34.20
2018-12-06T10:26:38.763Z,35.83
2018-12-06T10:29:06.273Z,33.67
2018-12-06T10:31:33.800Z,33.40
2018-12-06T10:34:01.321Z,34.43
2018-12-06T10:36:28.865Z,33.77
2018-12-06T10:38:56.382Z,31.93
2018-12-06T10:41:24.404Z,31.57
2018-12-06T10:43:51.926Z,31.63
2018-12-06T10:46:21.684Z,29.87
2018-12-06T10:48:49.259Z,29.87
2018-12-06T10:51:43.899Z,28.83
2018-12-06T10:54:11.405Z,27.70
2018-12-06T10:56:38.903Z,28.90
2018-12-06T10:59:06.440Z,29.07
2018-12-06T11:01:39.583Z,29.17
2018-12-06T11:04:08.097Z,29.17
2018-12-06T11:06:35.608Z,28.57
2018-12-06T11:09:04.651Z,28.17
2018-12-06T11:11:32.160Z,28.77
2018-12-06T11:13:59.669Z,30.10
2018-12-06T11:16:27.174Z,28.90
2018-12-06T11:18:54.717Z,27.77
2018-12-06T11:21:22.225Z,28.63
2018-12-06T11:23:49.760Z,28.47
2018-12-06T11:26:17.284Z,30.33
2018-12-06T11:28:45.094Z,29.90
2018-12-06T11:31:12.601Z,29.30
2018-12-06T11:33:40.122Z,29.67
2018-12-06T11:36:08.694Z,27.90
2018-12-06T11:38:36.287Z,27.20
2018-12-06T11:41:03.891Z,25.33
2018-12-06T11:43:32.247Z,26.57
2018-12-06T11:45:59.754Z,25.07
2018-12-06T11:48:27.325Z,25.20
2018-12-06T11:50:54.900Z,23.23
2018-12-06T11:53:22.402Z,22.87
2018-12-06T11:55:49.923Z,21.00
2018-12-06T11:58:17.435Z,21.20
2018-12-06T12:00:45.919Z,20.80
2018-12-06T12:03:13.444Z,20.83
2018-12-06T12:05:40.974Z,20.47
2018-12-06T12:08:08.523Z,20.43
2018-12-06T12:10:36.659Z,19.73
2018-12-06T12:13:04.819Z,19.27
2018-12-06T12:15:32.351Z,18.73
2018-12-06T12:17:59.844Z,16.77
2018-12-06T12:20:27.361Z,18.27
2018-12-06T12:22:54.895Z,17.83
2018-12-06T12:25:22.409Z,17.37
2018-12-06T12:27:50.837Z,16.40
2018-12-06T12:30:18.364Z,16.33
2018-12-06T12:32:45.889Z,18.53
2018-12-06T12:35:13.445Z,18.27
2018-12-06T12:37:41.837Z,17.47
2018-12-06T12:40:09.871Z,17.83
2018-12-06T12:42:37.402Z,18.30
2018-12-06T12:45:06.591Z,20.43
2018-12-06T12:47:34.148Z,17.80
2018-12-06T12:50:01.674Z,18.53
2018-12-06T12:52:29.180Z,19.40
2018-12-06T12:54:56.702Z,17.73
2018-12-06T12:57:24.250Z,16.10
2018-12-06T12:59:51.786Z,17.17
2018-12-06T13:02:19.281Z,16.87
2018-12-06T13:04:47.148Z,15.73
2018-12-06T13:07:14.836Z,16.17
2018-12-06T13:09:42.338Z,14.57
2018-12-06T13:12:09.849Z,15.23
2018-12-06T13:14:37.367Z,16.27
2018-12-06T13:17:04.873Z,16.67
2018-12-06T13:19:32.419Z,16.77
2018-12-06T13:22:00.094Z,17.13
2018-12-06T13:24:27.625Z,15.13
2018-12-06T13:26:55.137Z,14.53
2018-12-06T13:29:22.650Z,13.50
2018-12-06T13:31:50.169Z,14.57
2018-12-06T13:34:17.679Z,15.27
2018-12-06T13:36:45.186Z,15.37
2018-12-06T13:39:12.737Z,16.70
2018-12-06T13:41:40.331Z,16.70
2018-12-06T13:44:07.858Z,17.30
2018-12-06T13:46:35.396Z,18.30
2018-12-06T13:49:02.912Z,17.57
2018-12-06T13:51:30.433Z,18.03
2018-12-06T13:53:57.973Z,18.67
2018-12-06T13:56:25.563Z,18.43
2018-12-06T13:58:53.069Z,18.30
2018-12-06T14:01:20.744Z,17.87
2018-12-06T14:03:48.555Z,17.73
2018-12-06T14:06:16.067Z,19.33
2018-12-06T14:08:43.650Z,19.07
2018-12-06T14:11:11.162Z,19.37
2018-12-06T14:13:39.610Z,19.77
2018-12-06T14:16:10.593Z,19.50
2018-12-06T14:18:37.269Z,19.47
2018-12-06T14:21:05.045Z,19.47
2018-12-06T14:23:32.581Z,18.57
2018-12-06T14:26:00.092Z,19.97
2018-12-06T14:28:27.585Z,18.77
2018-12-06T14:30:55.136Z,19.37
2018-12-06T14:33:22.690Z,18.17
2018-12-06T14:35:50.779Z,19.17
2018-12-06T14:38:18.285Z,19.13
2018-12-06T14:40:45.833Z,18.00
2018-12-06T14:43:13.510Z,18.77
2018-12-06T14:45:42.706Z,18.20
2018-12-06T14:48:10.546Z,17.20
2018-12-06T14:50:38.084Z,15.63
2018-12-06T14:53:05.623Z,16.47
2018-12-06T14:55:33.179Z,17.50
2018-12-06T14:58:00.776Z,17.33
2018-12-06T15:00:28.360Z,18.33
2018-12-06T15:02:55.891Z,17.83
2018-12-06T15:05:23.383Z,19.03
2018-12-06T15:07:51.579Z,16.77
2018-12-06T15:10:19.401Z,17.07
2018-12-06T15:12:46.905Z,17.87
2018-12-06T15:15:14.420Z,18.53
2018-12-06T15:17:41.943Z,17.67
2018-12-06T15:20:09.459Z,18.33
2018-12-06T15:22:37.573Z,19.63
2018-12-06T15:25:06.356Z,21.20
2018-12-06T15:27:33.874Z,20.80
2018-12-06T15:30:01.416Z,19.57
2018-12-06T15:32:28.954Z,18.40
2018-12-06T15:34:57.150Z,19.43
2018-12-06T15:37:24.680Z,18.20
2018-12-06T15:39:52.225Z,17.90
2018-12-06T15:42:19.789Z,19.80
2018-12-06T15:44:47.348Z,18.97
2018-12-06T15:47:14.873Z,18.03
2018-12-06T15:49:42.831Z,18.87
2018-12-06T15:52:10.365Z,19.47
2018-12-06T15:54:37.930Z,18.33
2018-12-06T15:57:05.462Z,18.07
2018-12-06T15:59:32.981Z,18.53
2018-12-06T16:02:00.584Z,18.10
2018-12-06T16:04:28.097Z,19.00
2018-12-06T16:06:55.607Z,18.10
2018-12-06T16:09:23.160Z,19.20
2018-12-06T16:11:50.681Z,18.83
2018-12-06T16:14:18.188Z,17.37
2018-12-06T16:16:45.704Z,16.73
2018-12-06T16:19:13.240Z,16.87
2018-12-06T16:21:40.787Z,14.80
2018-12-06T16:24:08.353Z,15.87
2018-12-06T16:26:35.883Z,16.73
2018-12-06T16:29:03.428Z,17.13
2018-12-06T16:31:31.027Z,17.03
2018-12-06T16:33:58.620Z,16.70
2018-12-06T16:36:26.178Z,15.73
2018-12-06T16:38:53.926Z,17.83
2018-12-06T16:41:21.520Z,16.87
2018-12-06T16:43:49.113Z,17.33
2018-12-06T16:46:16.715Z,16.00
2018-12-06T16:48:44.556Z,17.10
2018-12-06T16:51:12.162Z,16.07
2018-12-06T16:53:40.037Z,16.23
2018-12-06T16:56:07.827Z,17.10
2018-12-06T16:58:35.569Z,16.63
2018-12-06T17:01:03.117Z,16.30
2018-12-06T17:03:30.616Z,16.83
2018-12-06T17:05:58.134Z,16.67
2018-12-06T17:08:25.685Z,15.40
2018-12-06T17:10:53.238Z,16.40
2018-12-06T17:13:20.793Z,16.33
2018-12-06T17:15:48.319Z,17.33
2018-12-06T17:18:15.891Z,16.57
2018-12-06T17:20:43.422Z,16.20
2018-12-06T17:23:11.063Z,17.50
2018-12-06T17:25:38.601Z,18.23
2018-12-06T17:28:06.166Z,17.17
2018-12-06T17:30:33.876Z,18.10
2018-12-06T17:33:01.393Z,19.33
2018-12-06T17:35:29.149Z,18.07
2018-12-06T17:37:56.973Z,17.50
2018-12-06T17:40:24.551Z,18.37
2018-12-06T17:42:52.362Z,19.40
2018-12-06T17:45:20.359Z,18.23
2018-12-06T17:47:48.190Z,18.03
2018-12-06T17:50:15.734Z,17.20
2018-12-06T17:52:43.246Z,18.57
2018-12-06T17:55:10.853Z,17.07
2018-12-06T17:57:38.945Z,16.57
2018-12-06T18:00:09.861Z,16.33
2018-12-06T18:02:37.645Z,17.10
2018-12-06T18:05:05.672Z,16.50
2018-12-06T18:07:33.191Z,15.50
2018-12-06T18:10:00.768Z,15.87
2018-12-06T18:12:28.646Z,15.37
2018-12-06T18:14:56.179Z,14.30
2018-12-06T18:17:23.713Z,14.50
2018-12-06T18:19:51.217Z,15.43
2018-12-06T18:22:18.741Z,14.43
2018-12-06T18:24:46.297Z,15.77
2018-12-06T18:27:13.852Z,14.80
2018-12-06T18:29:41.387Z,14.70
2018-12-06T18:32:09.380Z,14.43
2018-12-06T18:34:37.604Z,15.70
2018-12-06T18:37:05.144Z,14.87
2018-12-06T18:39:32.672Z,14.37
2018-12-06T18:42:00.223Z,15.13
2018-12-06T18:44:27.792Z,14.07
2018-12-06T18:46:55.430Z,15.50
2018-12-06T18:49:22.955Z,16.47
2018-12-06T18:51:52.047Z,15.90
2018-12-06T18:54:19.870Z,17.67
2018-12-06T18:56:47.458Z,16.60
2018-12-06T18:59:15.228Z,15.37
2018-12-06T19:01:42.820Z,16.30
2018-12-06T19:04:10.636Z,16.57
2018-12-06T19:06:41.004Z,16.07
2018-12-06T19:09:08.802Z,17.03
2018-12-06T19:11:36.606Z,16.83
2018-12-06T19:14:05.510Z,16.63
2018-12-06T19:16:34.200Z,17.13
2018-12-06T19:19:02.060Z,16.23
2018-12-06T19:21:29.733Z,16.90
2018-12-06T19:23:57.526Z,16.50
2018-12-06T19:26:25.063Z,15.23
2018-12-06T19:28:52.831Z,15.10
2018-12-06T19:31:20.374Z,15.53
2018-12-06T19:33:48.872Z,14.00
2018-12-06T19:36:16.387Z,14.87
2018-12-06T19:38:43.890Z,15.53
2018-12-06T19:41:11.563Z,15.17
2018-12-06T19:43:39.061Z,14.10
2018-12-06T19:46:06.566Z,15.13
2018-12-06T19:48:34.176Z,13.80
2018-12-06T19:51:01.807Z,14.57
2018-12-06T19:53:29.658Z,15.53
2018-12-06T19:55:58.063Z,16.03
2018-12-06T19:58:25.579Z,16.63
2018-12-06T20:00:53.097Z,16.03
2018-12-06T20:03:20.615Z,17.07
2018-12-06T20:05:48.423Z,16.37
2018-12-06T20:08:16.091Z,17.90
2018-12-06T20:10:43.590Z,18.53
2018-12-06T20:13:11.390Z,17.63
2018-12-06T20:15:39.242Z,19.73
2018-12-06T20:18:07.098Z,18.47
2018-12-06T20:20:34.976Z,19.37
2018-12-06T20:23:02.827Z,18.93
2018-12-06T20:25:31.039Z,18.50
2018-12-06T20:27:58.595Z,21.27
2018-12-06T20:30:26.131Z,21.23
2018-12-06T20:32:54.310Z,21.37
2018-12-06T20:35:22.043Z,19.23
2018-12-06T20:37:49.573Z,20.37
2018-12-06T20:40:17.123Z,18.93
2018-12-06T20:42:44.678Z,17.90
2018-12-06T20:45:12.195Z,18.33
2018-12-06T20:47:39.706Z,18.30
2018-12-06T20:50:07.392Z,15.60
2018-12-06T20:52:34.908Z,14.07
2018-12-06T20:55:02.440Z,14.20
2018-12-06T20:57:36.975Z,14.30
2018-12-06T21:00:00.641Z,13.63
2018-12-06T21:02:28.197Z,14.33
2018-12-06T21:04:55.710Z,14.20
2018-12-06T21:07:23.235Z,14.27
2018-12-06T21:09:50.768Z,12.43
2018-12-06T21:12:18.343Z,12.93
2018-12-06T21:14:45.892Z,12.67
2018-12-06T21:17:13.442Z,12.47
2018-12-06T21:19:40.953Z,12.60
2018-12-06T21:22:08.493Z,12.87
2018-12-06T21:24:35.974Z,12.13
2018-12-06T21:27:03.479Z,12.50
2018-12-06T21:29:31.163Z,11.03
2018-12-06T21:31:58.683Z,12.97
2018-12-06T21:34:26.622Z,12.03
2018-12-06T21:36:54.143Z,12.33
2018-12-06T21:39:21.661Z,12.87
2018-12-06T21:41:49.669Z,12.30
2018-12-06T21:44:17.251Z,12.77
2018-12-06T21:46:44.810Z,12.73
2018-12-06T21:49:12.422Z,13.30
2018-12-06T21:51:39.961Z,13.17
2018-12-06T21:54:07.858Z,14.27
2018-12-06T21:56:35.359Z,13.90
2018-12-06T21:59:02.915Z,13.27
2018-12-06T22:01:30.438Z,13.30
2018-12-06T22:03:57.996Z,15.03
2018-12-06T22:06:25.629Z,14.80
2018-12-06T22:08:53.154Z,14.43
2018-12-06T22:11:21.321Z,14.90
2018-12-06T22:13:49.855Z,14.70
2018-12-06T22:16:17.371Z,14.10
2018-12-06T22:18:45.533Z,15.97
2018-12-06T22:21:13.098Z,15.67
2018-12-06T22:23:40.628Z,15.17
2018-12-06T22:26:08.143Z,16.57
2018-12-06T22:28:35.672Z,16.73
2018-12-06T22:31:03.193Z,16.30
2018-12-06T22:33:30.712Z,16.33
2018-12-06T22:35:58.248Z,16.40
2018-12-06T22:38:25.798Z,16.57
2018-12-06T22:40:53.319Z,15.13
2018-12-06T22:43:20.902Z,17.67
2018-12-06T22:45:54.024Z,16.87
2018-12-06T22:48:21.565Z,16.07
2018-12-06T22:50:49.099Z,15.60
2018-12-06T22:53:17.517Z,16.37
2018-12-06T22:55:45.066Z,16.73
2018-12-06T22:58:12.602Z,14.53
2018-12-06T23:00:43.222Z,15.17
2018-12-06T23:03:11.092Z,16.23
2018-12-06T23:05:38.636Z,15.50
2018-12-06T23:08:06.228Z,14.77
2018-12-06T23:10:34.321Z,13.63
2018-12-06T23:13:01.853Z,13.63
2018-12-06T23:15:29.361Z,12.03
2018-12-06T23:17:56.879Z,12.80
2018-12-06T23:20:24.430Z,12.97
2018-12-06T23:22:52.128Z,14.03
2018-12-06T23:25:19.678Z,13.60
2018-12-06T23:27:47.183Z,11.83
2018-12-06T23:30:14.792Z,13.03
2018-12-06T23:32:42.354Z,12.07
2018-12-06T23:35:10.027Z,12.07
2018-12-06T23:37:37.542Z,12.30
2018-12-06T23:40:05.816Z,12.57
2018-12-06T23:42:33.384Z,10.60
2018-12-06T23:45:00.954Z,11.17
2018-12-06T23:47:28.483Z,11.87
2018-12-06T23:49:55.977Z,10.97
2018-12-06T23:52:23.501Z,11.87
2018-12-06T23:54:51.035Z,10.40
2018-12-06T23:57:18.566Z,10.70
2018-12-06T23:59:46.070Z,11.07
